sensor_id;sensor_type;location;lat;lon;timestamp;P1;durP1;ratioP1;P2;durP2;ratioP2
19739;SDS011;10027;51.066;13.768;2023-08-06T00:01:03;4.00;;;3.70;;
19739;SDS011;10027;51.066;13.768;2023-08-06T00:03:30;4.20;;;3.67;;
19739;SDS011;10027;51.066;13.768;2023-08-06T00:05:58;4.87;;;3.60;;
19739;SDS011;10027;51.066;13.768;2023-08-06T00:08:25;4.53;;;3.30;;
19739;SDS011;10027;51.066;13.768;2023-08-06T00:10:52;4.27;;;3.63;;
19739;SDS011;10027;51.066;13.768;2023-08-06T00:13:20;4.63;;;3.57;;
19739;SDS011;10027;51.066;13.768;2023-08-06T00:15:47;5.00;;;3.47;;
19739;SDS011;10027;51.066;13.768;2023-08-06T00:18:14;3.90;;;3.47;;
19739;SDS011;10027;51.066;13.768;2023-08-06T00:20:41;4.27;;;3.80;;
19739;SDS011;10027;51.066;13.768;2023-08-06T00:23:09;4.10;;;3.70;;
19739;SDS011;10027;51.066;13.768;2023-08-06T00:25:36;5.90;;;3.57;;
19739;SDS011;10027;51.066;13.768;2023-08-06T00:28:04;3.53;;;3.23;;
19739;SDS011;10027;51.066;13.768;2023-08-06T00:30:31;3.93;;;3.17;;
19739;SDS011;10027;51.066;13.768;2023-08-06T00:32:58;4.27;;;3.57;;
19739;SDS011;10027;51.066;13.768;2023-08-06T00:35:25;4.90;;;3.50;;
19739;SDS011;10027;51.066;13.768;2023-08-06T00:37:53;6.17;;;3.60;;
19739;SDS011;10027;51.066;13.768;2023-08-06T00:40:20;4.67;;;3.43;;
19739;SDS011;10027;51.066;13.768;2023-08-06T00:42:49;3.93;;;3.43;;
19739;SDS011;10027;51.066;13.768;2023-08-06T00:45:16;3.60;;;3.30;;
19739;SDS011;10027;51.066;13.768;2023-08-06T00:47:43;3.93;;;3.57;;
19739;SDS011;10027;51.066;13.768;2023-08-06T00:50:11;4.43;;;3.53;;
19739;SDS011;10027;51.066;13.768;2023-08-06T00:52:39;4.73;;;3.60;;
19739;SDS011;10027;51.066;13.768;2023-08-06T00:55:06;4.77;;;3.80;;
19739;SDS011;10027;51.066;13.768;2023-08-06T00:57:34;4.77;;;3.80;;
19739;SDS011;10027;51.066;13.768;2023-08-06T01:00:01;4.13;;;3.73;;
19739;SDS011;10027;51.066;13.768;2023-08-06T01:02:30;4.47;;;4.03;;
19739;SDS011;10027;51.066;13.768;2023-08-06T01:04:57;5.40;;;4.00;;
19739;SDS011;10027;51.066;13.768;2023-08-06T01:10:36;4.83;;;4.23;;
19739;SDS011;10027;51.066;13.768;2023-08-06T01:13:37;5.30;;;4.30;;
19739;SDS011;10027;51.066;13.768;2023-08-06T01:15:44;9.73;;;4.03;;
19739;SDS011;10027;51.066;13.768;2023-08-06T01:18:13;3.70;;;3.27;;
19739;SDS011;10027;51.066;13.768;2023-08-06T01:20:41;3.57;;;3.23;;
19739;SDS011;10027;51.066;13.768;2023-08-06T01:23:08;3.67;;;3.00;;
19739;SDS011;10027;51.066;13.768;2023-08-06T01:25:45;3.40;;;3.10;;
19739;SDS011;10027;51.066;13.768;2023-08-06T01:28:18;4.63;;;3.23;;
19739;SDS011;10027;51.066;13.768;2023-08-06T01:30:50;6.43;;;3.20;;
19739;SDS011;10027;51.066;13.768;2023-08-06T01:33:19;3.40;;;3.10;;
19739;SDS011;10027;51.066;13.768;2023-08-06T01:35:47;4.60;;;3.00;;
19739;SDS011;10027;51.066;13.768;2023-08-06T01:38:15;6.60;;;3.73;;
19739;SDS011;10027;51.066;13.768;2023-08-06T01:40:43;3.67;;;3.37;;
19739;SDS011;10027;51.066;13.768;2023-08-06T01:43:10;3.90;;;3.10;;
19739;SDS011;10027;51.066;13.768;2023-08-06T01:45:37;4.13;;;3.20;;
19739;SDS011;10027;51.066;13.768;2023-08-06T01:48:04;3.93;;;3.13;;
19739;SDS011;10027;51.066;13.768;2023-08-06T01:50:31;3.60;;;3.30;;
19739;SDS011;10027;51.066;13.768;2023-08-06T01:52:59;4.23;;;3.53;;
19739;SDS011;10027;51.066;13.768;2023-08-06T01:55:26;4.37;;;3.50;;
19739;SDS011;10027;51.066;13.768;2023-08-06T01:57:53;3.87;;;3.30;;
19739;SDS011;10027;51.066;13.768;2023-08-06T02:00:20;6.63;;;3.93;;
19739;SDS011;10027;51.066;13.768;2023-08-06T02:02:48;5.13;;;3.50;;
19739;SDS011;10027;51.066;13.768;2023-08-06T02:05:15;3.93;;;3.53;;
19739;SDS011;10027;51.066;13.768;2023-08-06T02:07:42;3.93;;;3.53;;
19739;SDS011;10027;51.066;13.768;2023-08-06T02:10:09;4.20;;;3.80;;
19739;SDS011;10027;51.066;13.768;2023-08-06T02:12:36;5.17;;;3.90;;
19739;SDS011;10027;51.066;13.768;2023-08-06T02:15:04;4.30;;;3.90;;
19739;SDS011;10027;51.066;13.768;2023-08-06T02:17:31;4.13;;;3.73;;
19739;SDS011;10027;51.066;13.768;2023-08-06T02:19:58;4.77;;;3.73;;
19739;SDS011;10027;51.066;13.768;2023-08-06T02:22:27;3.77;;;3.43;;
19739;SDS011;10027;51.066;13.768;2023-08-06T02:24:54;4.63;;;3.60;;
19739;SDS011;10027;51.066;13.768;2023-08-06T02:27:21;4.20;;;3.80;;
19739;SDS011;10027;51.066;13.768;2023-08-06T02:29:48;4.63;;;4.23;;
19739;SDS011;10027;51.066;13.768;2023-08-06T02:32:16;3.87;;;3.57;;
19739;SDS011;10027;51.066;13.768;2023-08-06T02:34:43;4.30;;;3.73;;
19739;SDS011;10027;51.066;13.768;2023-08-06T02:37:10;4.97;;;3.90;;
19739;SDS011;10027;51.066;13.768;2023-08-06T02:39:38;4.83;;;3.80;;
19739;SDS011;10027;51.066;13.768;2023-08-06T02:42:06;4.17;;;3.77;;
19739;SDS011;10027;51.066;13.768;2023-08-06T02:44:34;5.80;;;3.90;;
19739;SDS011;10027;51.066;13.768;2023-08-06T02:47:01;4.90;;;4.20;;
19739;SDS011;10027;51.066;13.768;2023-08-06T02:49:28;4.87;;;3.80;;
19739;SDS011;10027;51.066;13.768;2023-08-06T02:51:55;4.10;;;3.70;;
19739;SDS011;10027;51.066;13.768;2023-08-06T02:54:23;4.70;;;4.07;;
19739;SDS011;10027;51.066;13.768;2023-08-06T02:56:50;3.97;;;3.60;;
19739;SDS011;10027;51.066;13.768;2023-08-06T02:59:17;6.27;;;4.07;;
19739;SDS011;10027;51.066;13.768;2023-08-06T03:01:44;4.37;;;3.97;;
19739;SDS011;10027;51.066;13.768;2023-08-06T03:04:12;4.37;;;3.93;;
19739;SDS011;10027;51.066;13.768;2023-08-06T03:06:39;5.93;;;4.80;;
19739;SDS011;10027;51.066;13.768;2023-08-06T03:09:06;6.67;;;4.70;;
19739;SDS011;10027;51.066;13.768;2023-08-06T03:11:33;5.83;;;4.63;;
19739;SDS011;10027;51.066;13.768;2023-08-06T03:14:00;8.20;;;5.17;;
19739;SDS011;10027;51.066;13.768;2023-08-06T03:16:28;8.13;;;4.93;;
19739;SDS011;10027;51.066;13.768;2023-08-06T03:18:56;7.33;;;5.30;;
19739;SDS011;10027;51.066;13.768;2023-08-06T03:21:23;8.60;;;5.30;;
19739;SDS011;10027;51.066;13.768;2023-08-06T03:23:51;8.33;;;5.10;;
19739;SDS011;10027;51.066;13.768;2023-08-06T03:26:18;5.13;;;4.63;;
19739;SDS011;10027;51.066;13.768;2023-08-06T03:28:45;5.17;;;4.60;;
19739;SDS011;10027;51.066;13.768;2023-08-06T03:31:12;6.70;;;4.70;;
19739;SDS011;10027;51.066;13.768;2023-08-06T03:33:39;6.03;;;4.27;;
19739;SDS011;10027;51.066;13.768;2023-08-06T03:36:07;4.30;;;3.83;;
19739;SDS011;10027;51.066;13.768;2023-08-06T03:38:34;4.80;;;4.30;;
19739;SDS011;10027;51.066;13.768;2023-08-06T03:41:01;6.57;;;4.33;;
19739;SDS011;10027;51.066;13.768;2023-08-06T03:43:28;5.00;;;4.00;;
19739;SDS011;10027;51.066;13.768;2023-08-06T03:45:56;4.93;;;4.43;;
19739;SDS011;10027;51.066;13.768;2023-08-06T03:48:23;4.13;;;3.73;;
19739;SDS011;10027;51.066;13.768;2023-08-06T03:50:50;5.47;;;4.30;;
19739;SDS011;10027;51.066;13.768;2023-08-06T03:53:17;5.23;;;4.50;;
19739;SDS011;10027;51.066;13.768;2023-08-06T03:55:44;5.27;;;4.20;;
19739;SDS011;10027;51.066;13.768;2023-08-06T03:58:11;4.77;;;3.93;;
19739;SDS011;10027;51.066;13.768;2023-08-06T04:00:39;3.13;;;2.90;;
19739;SDS011;10027;51.066;13.768;2023-08-06T04:03:06;3.43;;;3.13;;
19739;SDS011;10027;51.066;13.768;2023-08-06T04:05:33;3.73;;;3.10;;
19739;SDS011;10027;51.066;13.768;2023-08-06T04:08:01;3.47;;;3.17;;
19739;SDS011;10027;51.066;13.768;2023-08-06T04:10:28;3.40;;;3.00;;
19739;SDS011;10027;51.066;13.768;2023-08-06T04:12:55;5.80;;;3.37;;
19739;SDS011;10027;51.066;13.768;2023-08-06T04:15:22;3.80;;;3.30;;
19739;SDS011;10027;51.066;13.768;2023-08-06T04:17:50;3.47;;;3.17;;
19739;SDS011;10027;51.066;13.768;2023-08-06T04:20:17;3.23;;;2.67;;
19739;SDS011;10027;51.066;13.768;2023-08-06T04:22:44;2.73;;;2.53;;
19739;SDS011;10027;51.066;13.768;2023-08-06T04:25:11;2.70;;;2.50;;
19739;SDS011;10027;51.066;13.768;2023-08-06T04:27:38;4.80;;;2.70;;
19739;SDS011;10027;51.066;13.768;2023-08-06T04:30:08;3.20;;;2.47;;
19739;SDS011;10027;51.066;13.768;2023-08-06T04:32:35;3.90;;;2.87;;
19739;SDS011;10027;51.066;13.768;2023-08-06T04:35:02;2.80;;;2.60;;
19739;SDS011;10027;51.066;13.768;2023-08-06T04:37:30;2.60;;;2.40;;
19739;SDS011;10027;51.066;13.768;2023-08-06T04:39:57;3.63;;;2.87;;
19739;SDS011;10027;51.066;13.768;2023-08-06T04:42:24;2.73;;;2.50;;
19739;SDS011;10027;51.066;13.768;2023-08-06T04:44:52;2.97;;;2.77;;
19739;SDS011;10027;51.066;13.768;2023-08-06T04:47:19;3.33;;;2.60;;
19739;SDS011;10027;51.066;13.768;2023-08-06T04:49:46;2.60;;;2.40;;
19739;SDS011;10027;51.066;13.768;2023-08-06T04:52:13;2.50;;;2.30;;
19739;SDS011;10027;51.066;13.768;2023-08-06T04:54:40;2.60;;;2.40;;
19739;SDS011;10027;51.066;13.768;2023-08-06T04:57:07;2.97;;;2.50;;
19739;SDS011;10027;51.066;13.768;2023-08-06T04:59:35;2.63;;;2.43;;
19739;SDS011;10027;51.066;13.768;2023-08-06T05:02:02;2.90;;;2.50;;
19739;SDS011;10027;51.066;13.768;2023-08-06T05:04:29;2.90;;;2.67;;
19739;SDS011;10027;51.066;13.768;2023-08-06T05:06:57;2.67;;;2.47;;
19739;SDS011;10027;51.066;13.768;2023-08-06T05:09:24;2.70;;;2.27;;
19739;SDS011;10027;51.066;13.768;2023-08-06T05:11:51;3.13;;;2.70;;
19739;SDS011;10027;51.066;13.768;2023-08-06T05:14:18;2.80;;;2.60;;
19739;SDS011;10027;51.066;13.768;2023-08-06T05:16:45;2.87;;;2.57;;
19739;SDS011;10027;51.066;13.768;2023-08-06T05:19:13;2.70;;;2.50;;
19739;SDS011;10027;51.066;13.768;2023-08-06T05:21:40;2.83;;;2.60;;
19739;SDS011;10027;51.066;13.768;2023-08-06T05:24:07;2.80;;;2.60;;
19739;SDS011;10027;51.066;13.768;2023-08-06T05:26:34;2.80;;;2.50;;
19739;SDS011;10027;51.066;13.768;2023-08-06T05:29:01;2.57;;;2.37;;
19739;SDS011;10027;51.066;13.768;2023-08-06T05:31:29;5.70;;;2.80;;
19739;SDS011;10027;51.066;13.768;2023-08-06T05:33:56;2.63;;;2.43;;
19739;SDS011;10027;51.066;13.768;2023-08-06T05:36:23;3.37;;;2.40;;
19739;SDS011;10027;51.066;13.768;2023-08-06T05:38:54;2.50;;;2.30;;
19739;SDS011;10027;51.066;13.768;2023-08-06T05:41:21;2.50;;;2.30;;
19739;SDS011;10027;51.066;13.768;2023-08-06T05:43:48;2.50;;;2.20;;
19739;SDS011;10027;51.066;13.768;2023-08-06T05:46:15;2.50;;;2.30;;
19739;SDS011;10027;51.066;13.768;2023-08-06T05:48:42;2.30;;;2.10;;
19739;SDS011;10027;51.066;13.768;2023-08-06T05:51:10;2.40;;;2.20;;
19739;SDS011;10027;51.066;13.768;2023-08-06T05:53:39;2.73;;;2.53;;
19739;SDS011;10027;51.066;13.768;2023-08-06T05:56:06;2.43;;;2.20;;
19739;SDS011;10027;51.066;13.768;2023-08-06T05:58:33;2.17;;;2.07;;
19739;SDS011;10027;51.066;13.768;2023-08-06T06:01:00;3.10;;;2.17;;
19739;SDS011;10027;51.066;13.768;2023-08-06T06:03:28;2.27;;;2.07;;
19739;SDS011;10027;51.066;13.768;2023-08-06T06:05:55;2.50;;;2.30;;
19739;SDS011;10027;51.066;13.768;2023-08-06T06:08:22;2.70;;;2.50;;
19739;SDS011;10027;51.066;13.768;2023-08-06T06:10:49;2.40;;;2.20;;
19739;SDS011;10027;51.066;13.768;2023-08-06T06:13:16;2.90;;;2.57;;
19739;SDS011;10027;51.066;13.768;2023-08-06T06:15:43;2.70;;;2.47;;
19739;SDS011;10027;51.066;13.768;2023-08-06T06:18:11;3.20;;;2.87;;
19739;SDS011;10027;51.066;13.768;2023-08-06T06:20:38;7.57;;;2.80;;
19739;SDS011;10027;51.066;13.768;2023-08-06T06:23:05;3.30;;;3.00;;
19739;SDS011;10027;51.066;13.768;2023-08-06T06:25:32;3.67;;;3.37;;
19739;SDS011;10027;51.066;13.768;2023-08-06T06:28:00;3.93;;;3.43;;
19739;SDS011;10027;51.066;13.768;2023-08-06T06:30:27;3.70;;;3.40;;
19739;SDS011;10027;51.066;13.768;2023-08-06T06:32:54;3.80;;;3.50;;
19739;SDS011;10027;51.066;13.768;2023-08-06T06:35:21;3.80;;;3.40;;
19739;SDS011;10027;51.066;13.768;2023-08-06T06:37:48;4.10;;;3.67;;
19739;SDS011;10027;51.066;13.768;2023-08-06T06:40:16;3.80;;;3.50;;
19739;SDS011;10027;51.066;13.768;2023-08-06T06:42:43;3.67;;;3.30;;
19739;SDS011;10027;51.066;13.768;2023-08-06T06:45:10;3.50;;;3.20;;
19739;SDS011;10027;51.066;13.768;2023-08-06T06:47:37;3.60;;;3.30;;
19739;SDS011;10027;51.066;13.768;2023-08-06T06:50:05;4.07;;;3.43;;
19739;SDS011;10027;51.066;13.768;2023-08-06T06:52:32;3.90;;;3.30;;
19739;SDS011;10027;51.066;13.768;2023-08-06T06:54:59;3.30;;;3.00;;
19739;SDS011;10027;51.066;13.768;2023-08-06T06:57:27;3.73;;;3.33;;
19739;SDS011;10027;51.066;13.768;2023-08-06T06:59:54;3.63;;;3.33;;
19739;SDS011;10027;51.066;13.768;2023-08-06T07:02:21;4.00;;;3.60;;
19739;SDS011;10027;51.066;13.768;2023-08-06T07:04:49;3.80;;;3.50;;
19739;SDS011;10027;51.066;13.768;2023-08-06T07:07:17;3.60;;;3.30;;
19739;SDS011;10027;51.066;13.768;2023-08-06T07:09:44;3.57;;;3.27;;
19739;SDS011;10027;51.066;13.768;2023-08-06T07:12:12;4.47;;;3.60;;
19739;SDS011;10027;51.066;13.768;2023-08-06T07:14:39;7.77;;;4.20;;
19739;SDS011;10027;51.066;13.768;2023-08-06T07:17:06;4.00;;;3.57;;
19739;SDS011;10027;51.066;13.768;2023-08-06T07:19:33;6.90;;;4.40;;
19739;SDS011;10027;51.066;13.768;2023-08-06T07:22:00;4.87;;;3.67;;
19739;SDS011;10027;51.066;13.768;2023-08-06T07:24:27;4.63;;;4.23;;
19739;SDS011;10027;51.066;13.768;2023-08-06T07:26:55;4.43;;;4.00;;
19739;SDS011;10027;51.066;13.768;2023-08-06T07:29:22;5.47;;;3.90;;
19739;SDS011;10027;51.066;13.768;2023-08-06T07:31:49;5.60;;;3.70;;
19739;SDS011;10027;51.066;13.768;2023-08-06T07:34:17;5.63;;;4.40;;
19739;SDS011;10027;51.066;13.768;2023-08-06T07:36:45;4.80;;;4.30;;
19739;SDS011;10027;51.066;13.768;2023-08-06T07:39:12;5.57;;;4.67;;
19739;SDS011;10027;51.066;13.768;2023-08-06T07:41:40;5.00;;;4.13;;
19739;SDS011;10027;51.066;13.768;2023-08-06T07:44:07;5.33;;;4.30;;
19739;SDS011;10027;51.066;13.768;2023-08-06T07:46:34;5.13;;;4.17;;
19739;SDS011;10027;51.066;13.768;2023-08-06T07:49:02;5.67;;;4.20;;
19739;SDS011;10027;51.066;13.768;2023-08-06T07:51:29;4.10;;;3.70;;
19739;SDS011;10027;51.066;13.768;2023-08-06T07:53:56;4.90;;;3.90;;
19739;SDS011;10027;51.066;13.768;2023-08-06T07:56:23;4.23;;;3.70;;
19739;SDS011;10027;51.066;13.768;2023-08-06T07:58:50;4.50;;;4.10;;
19739;SDS011;10027;51.066;13.768;2023-08-06T08:01:17;4.40;;;4.00;;
19739;SDS011;10027;51.066;13.768;2023-08-06T08:03:45;4.27;;;3.87;;
19739;SDS011;10027;51.066;13.768;2023-08-06T08:06:12;4.20;;;3.80;;
19739;SDS011;10027;51.066;13.768;2023-08-06T08:08:39;3.63;;;3.33;;
19739;SDS011;10027;51.066;13.768;2023-08-06T08:11:07;4.30;;;3.90;;
19739;SDS011;10027;51.066;13.768;2023-08-06T08:13:34;5.37;;;3.40;;
19739;SDS011;10027;51.066;13.768;2023-08-06T08:16:02;4.47;;;3.43;;
19739;SDS011;10027;51.066;13.768;2023-08-06T08:18:29;3.50;;;3.20;;
19739;SDS011;10027;51.066;13.768;2023-08-06T08:20:57;5.07;;;3.47;;
19739;SDS011;10027;51.066;13.768;2023-08-06T08:23:24;6.10;;;3.30;;
19739;SDS011;10027;51.066;13.768;2023-08-06T08:25:52;3.30;;;3.00;;
19739;SDS011;10027;51.066;13.768;2023-08-06T08:28:19;3.60;;;3.00;;
19739;SDS011;10027;51.066;13.768;2023-08-06T08:30:46;3.37;;;3.07;;
19739;SDS011;10027;51.066;13.768;2023-08-06T08:33:14;5.43;;;3.03;;
19739;SDS011;10027;51.066;13.768;2023-08-06T08:35:41;2.63;;;2.43;;
19739;SDS011;10027;51.066;13.768;2023-08-06T08:38:08;2.93;;;2.40;;
19739;SDS011;10027;51.066;13.768;2023-08-06T08:40:36;2.27;;;2.07;;
19739;SDS011;10027;51.066;13.768;2023-08-06T08:43:05;2.40;;;2.20;;
19739;SDS011;10027;51.066;13.768;2023-08-06T08:45:32;2.40;;;2.20;;
19739;SDS011;10027;51.066;13.768;2023-08-06T08:48:02;3.20;;;2.20;;
19739;SDS011;10027;51.066;13.768;2023-08-06T08:50:29;2.00;;;1.80;;
19739;SDS011;10027;51.066;13.768;2023-08-06T08:52:56;2.47;;;2.20;;
19739;SDS011;10027;51.066;13.768;2023-08-06T08:55:24;4.27;;;2.17;;
19739;SDS011;10027;51.066;13.768;2023-08-06T08:57:51;2.50;;;2.30;;
19739;SDS011;10027;51.066;13.768;2023-08-06T09:00:18;2.43;;;2.23;;
19739;SDS011;10027;51.066;13.768;2023-08-06T09:02:46;2.20;;;2.00;;
19739;SDS011;10027;51.066;13.768;2023-08-06T09:05:13;3.70;;;1.90;;
19739;SDS011;10027;51.066;13.768;2023-08-06T09:07:42;3.40;;;2.00;;
19739;SDS011;10027;51.066;13.768;2023-08-06T09:10:10;2.10;;;1.90;;
19739;SDS011;10027;51.066;13.768;2023-08-06T09:12:39;2.20;;;2.00;;
19739;SDS011;10027;51.066;13.768;2023-08-06T09:15:07;2.40;;;2.20;;
19739;SDS011;10027;51.066;13.768;2023-08-06T09:17:35;2.30;;;2.10;;
19739;SDS011;10027;51.066;13.768;2023-08-06T09:20:12;2.23;;;1.87;;
19739;SDS011;10027;51.066;13.768;2023-08-06T09:22:41;2.20;;;2.00;;
19739;SDS011;10027;51.066;13.768;2023-08-06T09:25:08;2.30;;;2.00;;
19739;SDS011;10027;51.066;13.768;2023-08-06T09:27:36;2.40;;;1.93;;
19739;SDS011;10027;51.066;13.768;2023-08-06T09:30:04;2.30;;;2.10;;
19739;SDS011;10027;51.066;13.768;2023-08-06T09:32:44;2.47;;;2.27;;
19739;SDS011;10027;51.066;13.768;2023-08-06T09:35:16;4.13;;;2.30;;
19739;SDS011;10027;51.066;13.768;2023-08-06T09:37:44;2.70;;;2.20;;
19739;SDS011;10027;51.066;13.768;2023-08-06T09:42:50;2.40;;;2.20;;
19739;SDS011;10027;51.066;13.768;2023-08-06T09:45:18;2.37;;;2.17;;
19739;SDS011;10027;51.066;13.768;2023-08-06T09:47:45;4.20;;;2.70;;
19739;SDS011;10027;51.066;13.768;2023-08-06T09:50:19;2.70;;;2.50;;
19739;SDS011;10027;51.066;13.768;2023-08-06T09:52:46;2.77;;;2.50;;
19739;SDS011;10027;51.066;13.768;2023-08-06T09:55:18;2.67;;;2.40;;
19739;SDS011;10027;51.066;13.768;2023-08-06T09:57:48;2.73;;;2.50;;
19739;SDS011;10027;51.066;13.768;2023-08-06T10:00:16;2.97;;;2.70;;
19739;SDS011;10027;51.066;13.768;2023-08-06T10:02:43;3.00;;;2.57;;
19739;SDS011;10027;51.066;13.768;2023-08-06T10:05:12;2.73;;;2.50;;
19739;SDS011;10027;51.066;13.768;2023-08-06T10:07:39;3.07;;;2.77;;
19739;SDS011;10027;51.066;13.768;2023-08-06T10:10:07;3.10;;;2.50;;
19739;SDS011;10027;51.066;13.768;2023-08-06T10:12:42;2.67;;;2.47;;
19739;SDS011;10027;51.066;13.768;2023-08-06T10:15:11;3.33;;;2.80;;
19739;SDS011;10027;51.066;13.768;2023-08-06T10:17:39;2.67;;;2.47;;
19739;SDS011;10027;51.066;13.768;2023-08-06T10:20:16;3.13;;;2.40;;
19739;SDS011;10027;51.066;13.768;2023-08-06T10:22:45;2.83;;;2.63;;
19739;SDS011;10027;51.066;13.768;2023-08-06T10:25:16;2.80;;;2.60;;
19739;SDS011;10027;51.066;13.768;2023-08-06T10:32:50;2.67;;;2.40;;
19739;SDS011;10027;51.066;13.768;2023-08-06T10:35:28;3.40;;;2.70;;
19739;SDS011;10027;51.066;13.768;2023-08-06T10:37:59;2.53;;;2.33;;
19739;SDS011;10027;51.066;13.768;2023-08-06T10:40:26;2.80;;;2.50;;
19739;SDS011;10027;51.066;13.768;2023-08-06T10:42:55;3.00;;;2.70;;
19739;SDS011;10027;51.066;13.768;2023-08-06T10:45:22;2.90;;;2.60;;
19739;SDS011;10027;51.066;13.768;2023-08-06T10:47:55;3.03;;;2.47;;
19739;SDS011;10027;51.066;13.768;2023-08-06T10:50:23;3.73;;;2.60;;
19739;SDS011;10027;51.066;13.768;2023-08-06T10:52:51;2.67;;;2.47;;
19739;SDS011;10027;51.066;13.768;2023-08-06T10:57:51;3.67;;;2.60;;
19739;SDS011;10027;51.066;13.768;2023-08-06T11:00:20;2.77;;;2.50;;
19739;SDS011;10027;51.066;13.768;2023-08-06T11:02:48;2.70;;;2.50;;
19739;SDS011;10027;51.066;13.768;2023-08-06T11:05:15;3.20;;;2.67;;
19739;SDS011;10027;51.066;13.768;2023-08-06T11:07:43;2.73;;;2.30;;
19739;SDS011;10027;51.066;13.768;2023-08-06T11:10:11;3.00;;;2.53;;
19739;SDS011;10027;51.066;13.768;2023-08-06T11:12:39;3.03;;;2.53;;
19739;SDS011;10027;51.066;13.768;2023-08-06T11:15:07;2.93;;;2.50;;
19739;SDS011;10027;51.066;13.768;2023-08-06T11:17:34;2.63;;;2.43;;
19739;SDS011;10027;51.066;13.768;2023-08-06T11:20:02;2.50;;;2.30;;
19739;SDS011;10027;51.066;13.768;2023-08-06T11:22:31;2.47;;;2.27;;
19739;SDS011;10027;51.066;13.768;2023-08-06T11:24:58;2.27;;;2.07;;
19739;SDS011;10027;51.066;13.768;2023-08-06T11:27:27;2.30;;;2.10;;
19739;SDS011;10027;51.066;13.768;2023-08-06T11:29:55;2.77;;;2.10;;
19739;SDS011;10027;51.066;13.768;2023-08-06T11:32:22;11.33;;;2.40;;
19739;SDS011;10027;51.066;13.768;2023-08-06T11:34:50;2.47;;;2.27;;
19739;SDS011;10027;51.066;13.768;2023-08-06T11:37:20;2.93;;;2.13;;
19739;SDS011;10027;51.066;13.768;2023-08-06T11:39:49;2.57;;;2.37;;
19739;SDS011;10027;51.066;13.768;2023-08-06T11:42:16;2.50;;;2.30;;
19739;SDS011;10027;51.066;13.768;2023-08-06T11:44:43;2.73;;;2.40;;
19739;SDS011;10027;51.066;13.768;2023-08-06T11:47:15;2.47;;;2.23;;
19739;SDS011;10027;51.066;13.768;2023-08-06T11:52:18;2.87;;;2.30;;
19739;SDS011;10027;51.066;13.768;2023-08-06T11:55:07;2.67;;;2.47;;
19739;SDS011;10027;51.066;13.768;2023-08-06T11:57:34;2.60;;;2.40;;
19739;SDS011;10027;51.066;13.768;2023-08-06T12:00:03;2.60;;;2.40;;
19739;SDS011;10027;51.066;13.768;2023-08-06T12:02:33;2.70;;;2.50;;
19739;SDS011;10027;51.066;13.768;2023-08-06T12:05:10;2.80;;;2.30;;
19739;SDS011;10027;51.066;13.768;2023-08-06T12:07:38;2.40;;;2.20;;
19739;SDS011;10027;51.066;13.768;2023-08-06T12:10:06;2.60;;;2.40;;
19739;SDS011;10027;51.066;13.768;2023-08-06T12:12:34;2.57;;;2.23;;
19739;SDS011;10027;51.066;13.768;2023-08-06T12:15:01;2.70;;;2.50;;
19739;SDS011;10027;51.066;13.768;2023-08-06T12:17:29;2.77;;;2.27;;
19739;SDS011;10027;51.066;13.768;2023-08-06T12:19:56;2.60;;;2.40;;
19739;SDS011;10027;51.066;13.768;2023-08-06T12:22:23;2.67;;;2.47;;
19739;SDS011;10027;51.066;13.768;2023-08-06T12:24:51;2.37;;;2.13;;
19739;SDS011;10027;51.066;13.768;2023-08-06T12:27:18;2.63;;;2.43;;
19739;SDS011;10027;51.066;13.768;2023-08-06T12:29:46;2.40;;;2.20;;
19739;SDS011;10027;51.066;13.768;2023-08-06T12:32:14;2.70;;;2.50;;
19739;SDS011;10027;51.066;13.768;2023-08-06T12:34:42;2.77;;;2.57;;
19739;SDS011;10027;51.066;13.768;2023-08-06T12:37:18;2.90;;;2.70;;
19739;SDS011;10027;51.066;13.768;2023-08-06T12:39:46;2.97;;;2.77;;
19739;SDS011;10027;51.066;13.768;2023-08-06T12:42:14;3.53;;;2.90;;
19739;SDS011;10027;51.066;13.768;2023-08-06T12:44:41;3.10;;;2.90;;
19739;SDS011;10027;51.066;13.768;2023-08-06T12:47:08;2.77;;;2.57;;
19739;SDS011;10027;51.066;13.768;2023-08-06T12:49:35;2.90;;;2.70;;
19739;SDS011;10027;51.066;13.768;2023-08-06T12:52:03;2.97;;;2.70;;
19739;SDS011;10027;51.066;13.768;2023-08-06T12:54:32;2.93;;;2.73;;
19739;SDS011;10027;51.066;13.768;2023-08-06T12:57:03;2.90;;;2.63;;
19739;SDS011;10027;51.066;13.768;2023-08-06T12:59:30;2.50;;;2.30;;
19739;SDS011;10027;51.066;13.768;2023-08-06T13:02:00;2.50;;;2.30;;
19739;SDS011;10027;51.066;13.768;2023-08-06T13:04:27;2.70;;;2.50;;
19739;SDS011;10027;51.066;13.768;2023-08-06T13:06:55;2.63;;;2.43;;
19739;SDS011;10027;51.066;13.768;2023-08-06T13:09:22;2.77;;;2.57;;
19739;SDS011;10027;51.066;13.768;2023-08-06T13:11:50;2.63;;;2.43;;
19739;SDS011;10027;51.066;13.768;2023-08-06T13:14:18;2.80;;;2.60;;
19739;SDS011;10027;51.066;13.768;2023-08-06T13:16:46;2.90;;;2.70;;
19739;SDS011;10027;51.066;13.768;2023-08-06T13:19:13;4.50;;;2.50;;
19739;SDS011;10027;51.066;13.768;2023-08-06T13:24:08;2.80;;;2.50;;
19739;SDS011;10027;51.066;13.768;2023-08-06T13:26:35;2.53;;;2.33;;
19739;SDS011;10027;51.066;13.768;2023-08-06T13:29:02;4.10;;;2.33;;
19739;SDS011;10027;51.066;13.768;2023-08-06T13:31:30;2.60;;;2.40;;
19739;SDS011;10027;51.066;13.768;2023-08-06T13:33:57;2.63;;;2.43;;
19739;SDS011;10027;51.066;13.768;2023-08-06T13:36:27;2.47;;;2.27;;
19739;SDS011;10027;51.066;13.768;2023-08-06T13:38:55;2.50;;;2.30;;
19739;SDS011;10027;51.066;13.768;2023-08-06T13:41:23;2.73;;;2.53;;
19739;SDS011;10027;51.066;13.768;2023-08-06T13:43:50;2.40;;;2.20;;
19739;SDS011;10027;51.066;13.768;2023-08-06T13:46:18;2.43;;;2.23;;
19739;SDS011;10027;51.066;13.768;2023-08-06T13:48:46;2.30;;;2.10;;
19739;SDS011;10027;51.066;13.768;2023-08-06T13:51:17;5.90;;;2.00;;
19739;SDS011;10027;51.066;13.768;2023-08-06T13:53:44;2.27;;;2.10;;
19739;SDS011;10027;51.066;13.768;2023-08-06T13:56:12;2.57;;;2.37;;
19739;SDS011;10027;51.066;13.768;2023-08-06T13:58:41;2.40;;;2.20;;
19739;SDS011;10027;51.066;13.768;2023-08-06T14:01:13;2.37;;;2.17;;
19739;SDS011;10027;51.066;13.768;2023-08-06T14:03:40;2.40;;;2.20;;
19739;SDS011;10027;51.066;13.768;2023-08-06T14:06:07;2.20;;;2.10;;
19739;SDS011;10027;51.066;13.768;2023-08-06T14:08:35;2.80;;;2.30;;
19739;SDS011;10027;51.066;13.768;2023-08-06T14:11:02;3.23;;;2.33;;
19739;SDS011;10027;51.066;13.768;2023-08-06T14:13:29;2.43;;;2.23;;
19739;SDS011;10027;51.066;13.768;2023-08-06T14:15:56;2.47;;;2.37;;
19739;SDS011;10027;51.066;13.768;2023-08-06T14:18:23;2.10;;;2.00;;
19739;SDS011;10027;51.066;13.768;2023-08-06T14:20:50;2.50;;;2.27;;
19739;SDS011;10027;51.066;13.768;2023-08-06T14:23:18;2.30;;;2.20;;
19739;SDS011;10027;51.066;13.768;2023-08-06T14:25:45;2.63;;;2.43;;
19739;SDS011;10027;51.066;13.768;2023-08-06T14:28:12;2.50;;;2.30;;
19739;SDS011;10027;51.066;13.768;2023-08-06T14:30:40;2.50;;;2.30;;
19739;SDS011;10027;51.066;13.768;2023-08-06T14:33:07;3.20;;;2.90;;
19739;SDS011;10027;51.066;13.768;2023-08-06T14:35:50;2.77;;;2.57;;
19739;SDS011;10027;51.066;13.768;2023-08-06T14:38:18;2.83;;;2.63;;
19739;SDS011;10027;51.066;13.768;2023-08-06T14:40:45;2.63;;;2.40;;
19739;SDS011;10027;51.066;13.768;2023-08-06T14:43:12;3.10;;;2.60;;
19739;SDS011;10027;51.066;13.768;2023-08-06T14:45:41;2.77;;;2.57;;
19739;SDS011;10027;51.066;13.768;2023-08-06T14:48:08;2.70;;;2.50;;
19739;SDS011;10027;51.066;13.768;2023-08-06T14:50:35;3.83;;;2.63;;
19739;SDS011;10027;51.066;13.768;2023-08-06T14:53:04;2.90;;;2.70;;
19739;SDS011;10027;51.066;13.768;2023-08-06T14:55:32;2.90;;;2.70;;